createdAt,value
2023-08-12T00:00:32.368Z,100.00
2023-08-12T00:03:20.737Z,100.00
2023-08-12T00:06:09.051Z,100.00
2023-08-12T00:08:56.985Z,100.00
2023-08-12T00:11:45.501Z,100.00
2023-08-12T00:14:33.372Z,100.00
2023-08-12T00:17:22.055Z,100.00
2023-08-12T00:20:11.673Z,100.00
2023-08-12T00:22:59.126Z,100.00
2023-08-12T00:25:47.502Z,100.00
2023-08-12T00:28:35.784Z,100.00
2023-08-12T00:31:24.205Z,100.00
2023-08-12T00:34:12.145Z,100.00
2023-08-12T00:36:59.966Z,100.00
2023-08-12T00:39:48.372Z,100.00
2023-08-12T00:42:36.277Z,100.00
2023-08-12T00:45:24.653Z,100.00
2023-08-12T00:48:14.557Z,100.00
2023-08-12T00:51:03.958Z,100.00
2023-08-12T00:53:52.377Z,100.00
2023-08-12T00:56:41.165Z,100.00
2023-08-12T00:59:29.302Z,100.00
2023-08-12T01:02:17.211Z,100.00
2023-08-12T01:05:06.027Z,100.00
2023-08-12T01:07:54.277Z,100.00
2023-08-12T01:10:46.331Z,100.00
2023-08-12T01:13:41.995Z,100.00
2023-08-12T01:16:32.553Z,100.00
2023-08-12T01:19:39.368Z,100.00
2023-08-12T01:22:27.731Z,100.00
2023-08-12T01:25:15.962Z,100.00
2023-08-12T01:28:04.995Z,100.00
2023-08-12T01:31:28.886Z,100.00
2023-08-12T01:34:22.086Z,100.00
2023-08-12T01:37:12.071Z,100.00
2023-08-12T01:40:02.366Z,100.00
2023-08-12T01:42:50.718Z,100.00
2023-08-12T01:45:39.433Z,100.00
2023-08-12T01:48:27.680Z,100.00
2023-08-12T01:51:15.893Z,100.00
2023-08-12T01:54:03.918Z,100.00
2023-08-12T01:56:52.321Z,100.00
2023-08-12T01:59:40.804Z,100.00
2023-08-12T02:02:29.281Z,100.00
2023-08-12T02:05:17.313Z,100.00
2023-08-12T02:08:05.995Z,100.00
2023-08-12T02:10:56.496Z,100.00
2023-08-12T02:13:44.617Z,100.00
2023-08-12T02:16:32.960Z,100.00
2023-08-12T02:19:21.177Z,100.00
2023-08-12T02:22:11.104Z,100.00
2023-08-12T02:24:59.514Z,100.00
2023-08-12T02:27:47.566Z,100.00
2023-08-12T02:30:35.563Z,100.00
2023-08-12T02:33:23.908Z,100.00
2023-08-12T02:36:11.999Z,100.00
2023-08-12T02:39:00.839Z,100.00
2023-08-12T02:41:49.075Z,100.00
2023-08-12T02:44:37.367Z,100.00
2023-08-12T02:47:25.729Z,100.00
2023-08-12T02:50:13.830Z,100.00
2023-08-12T02:53:03.191Z,100.00
2023-08-12T02:55:51.260Z,100.00
2023-08-12T02:58:39.699Z,100.00
2023-08-12T03:01:28.284Z,100.00
2023-08-12T03:04:16.602Z,100.00
2023-08-12T03:07:04.647Z,100.00
2023-08-12T03:09:52.833Z,100.00
2023-08-12T03:12:41.294Z,100.00
2023-08-12T03:15:29.473Z,100.00
2023-08-12T03:18:18.063Z,100.00
2023-08-12T03:21:07.839Z,100.00
2023-08-12T03:23:57.063Z,100.00
2023-08-12T03:26:45.202Z,100.00
2023-08-12T03:29:33.606Z,100.00
2023-08-12T03:32:21.966Z,100.00
2023-08-12T03:35:10.312Z,100.00
2023-08-12T03:37:59.136Z,100.00
2023-08-12T03:40:47.170Z,100.00
2023-08-12T03:43:38.243Z,100.00
2023-08-12T03:46:26.880Z,100.00
2023-08-12T03:49:15.495Z,100.00
2023-08-12T03:52:04.217Z,100.00
2023-08-12T03:54:53.714Z,100.00
2023-08-12T03:57:42.478Z,100.00
2023-08-12T04:00:31.699Z,100.00
2023-08-12T04:03:20.840Z,100.00
2023-08-12T04:06:09.629Z,100.00
2023-08-12T04:08:57.915Z,100.00
2023-08-12T04:11:46.990Z,100.00
2023-08-12T04:14:35.523Z,100.00
2023-08-12T04:17:23.589Z,100.00
2023-08-12T04:20:11.885Z,100.00
2023-08-12T04:23:00.297Z,100.00
2023-08-12T04:25:48.701Z,100.00
2023-08-12T04:28:36.949Z,100.00
2023-08-12T04:31:26.409Z,100.00
2023-08-12T04:34:14.656Z,100.00
2023-08-12T04:37:03.543Z,100.00
2023-08-12T04:39:51.973Z,100.00
2023-08-12T04:42:41.901Z,100.00
2023-08-12T04:45:30.741Z,100.00
2023-08-12T04:48:20.189Z,100.00
2023-08-12T04:51:08.399Z,100.00
2023-08-12T04:53:56.867Z,100.00
2023-08-12T04:56:45.296Z,100.00
2023-08-12T04:59:33.704Z,100.00
2023-08-12T05:02:23.258Z,100.00
2023-08-12T05:05:11.625Z,100.00
2023-08-12T05:07:59.971Z,100.00
2023-08-12T05:10:49.574Z,100.00
2023-08-12T05:13:37.970Z,100.00
2023-08-12T05:16:26.525Z,100.00
2023-08-12T05:19:14.958Z,100.00
2023-08-12T05:22:03.489Z,100.00
2023-08-12T05:24:51.316Z,100.00
2023-08-12T05:27:39.698Z,100.00
2023-08-12T05:30:28.765Z,100.00
2023-08-12T05:33:17.276Z,100.00
2023-08-12T05:36:05.628Z,100.00
2023-08-12T05:38:53.853Z,100.00
2023-08-12T05:41:42.247Z,100.00
2023-08-12T05:44:30.605Z,100.00
2023-08-12T05:47:18.869Z,100.00
2023-08-12T05:50:07.427Z,100.00
2023-08-12T05:52:55.335Z,100.00
2023-08-12T05:55:43.771Z,100.00
2023-08-12T05:58:32.099Z,100.00
2023-08-12T06:01:20.329Z,100.00
2023-08-12T06:04:08.285Z,100.00
2023-08-12T06:06:56.537Z,100.00
2023-08-12T06:09:44.588Z,100.00
2023-08-12T06:12:33.136Z,100.00
2023-08-12T06:15:22.152Z,100.00
2023-08-12T06:18:19.482Z,100.00
2023-08-12T06:21:07.671Z,100.00
2023-08-12T06:23:56.494Z,100.00
2023-08-12T06:26:44.496Z,100.00
2023-08-12T06:29:32.780Z,99.06
2023-08-12T06:32:20.750Z,96.84
2023-08-12T06:35:10.287Z,96.94
2023-08-12T06:37:58.809Z,95.15
2023-08-12T06:40:47.751Z,92.61
2023-08-12T06:43:36.457Z,90.77
2023-08-12T06:46:24.318Z,90.00
2023-08-12T06:49:12.847Z,89.51
2023-08-12T06:52:01.301Z,92.54
2023-08-12T06:54:49.164Z,91.69
2023-08-12T06:57:37.405Z,87.86
2023-08-12T07:00:25.702Z,87.11
2023-08-12T07:03:14.028Z,84.26
2023-08-12T07:06:01.963Z,83.26
2023-08-12T07:08:50.671Z,82.85
2023-08-12T07:11:39.075Z,81.50
2023-08-12T07:14:28.702Z,82.50
2023-08-12T07:17:16.725Z,84.24
2023-08-12T07:20:06.601Z,83.94
2023-08-12T07:22:54.156Z,80.98
2023-08-12T07:25:42.498Z,77.34
2023-08-12T07:28:30.671Z,75.04
2023-08-12T07:31:18.903Z,71.74
2023-08-12T07:34:07.347Z,73.21
2023-08-12T07:36:55.575Z,72.36
2023-08-12T07:39:44.178Z,67.55
2023-08-12T07:42:32.647Z,66.91
2023-08-12T07:45:22.164Z,67.05
2023-08-12T07:48:10.456Z,65.27
2023-08-12T07:50:58.964Z,63.43
2023-08-12T07:53:47.143Z,62.63
2023-08-12T07:56:35.534Z,63.08
2023-08-12T07:59:23.353Z,61.83
2023-08-12T08:02:11.800Z,60.19
2023-08-12T08:05:00.382Z,59.18
2023-08-12T08:07:48.703Z,60.79
2023-08-12T08:10:37.047Z,59.98
2023-08-12T08:13:24.744Z,58.55
2023-08-12T08:16:13.698Z,59.65
2023-08-12T08:19:02.505Z,57.34
2023-08-12T08:21:51.005Z,54.79
2023-08-12T08:24:39.348Z,55.05
2023-08-12T08:27:27.460Z,53.03
2023-08-12T08:30:15.653Z,53.39
2023-08-12T08:33:04.144Z,54.01
2023-08-12T08:35:52.648Z,54.83
2023-08-12T08:38:41.049Z,53.61
2023-08-12T08:41:31.098Z,52.54
2023-08-12T08:44:19.245Z,50.94
2023-08-12T08:47:07.637Z,49.95
2023-08-12T08:49:56.984Z,48.67
2023-08-12T08:52:45.335Z,49.60
2023-08-12T08:55:33.808Z,47.50
2023-08-12T08:58:22.704Z,45.69
2023-08-12T09:01:14.064Z,44.31
2023-08-12T09:04:04.156Z,44.98
2023-08-12T09:06:52.372Z,46.70
2023-08-12T09:09:49.529Z,46.78
2023-08-12T09:12:37.884Z,47.32
2023-08-12T09:15:26.347Z,47.78
2023-08-12T09:18:14.738Z,48.36
2023-08-12T09:21:03.108Z,47.78
2023-08-12T09:23:51.354Z,47.93
2023-08-12T09:26:39.663Z,47.47
2023-08-12T09:29:32.292Z,46.37
2023-08-12T09:32:20.012Z,43.60
2023-08-12T09:35:16.776Z,42.77
2023-08-12T09:38:05.573Z,45.10
2023-08-12T09:40:54.625Z,45.19
2023-08-12T09:43:46.083Z,43.78
2023-08-12T09:46:34.564Z,42.71
2023-08-12T09:49:22.484Z,43.10
2023-08-12T09:52:11.186Z,43.62
2023-08-12T09:55:00.040Z,42.76
2023-08-12T09:57:50.358Z,42.33
2023-08-12T10:00:38.526Z,43.42
2023-08-12T10:03:26.897Z,43.71
2023-08-12T10:06:18.755Z,42.69
2023-08-12T10:09:09.227Z,39.93
2023-08-12T10:11:57.635Z,39.74
2023-08-12T10:14:47.939Z,40.41
2023-08-12T10:17:43.134Z,41.57
2023-08-12T10:20:32.416Z,40.71
2023-08-12T10:23:20.918Z,39.73
2023-08-12T10:26:08.888Z,39.84
2023-08-12T10:28:57.104Z,40.70
2023-08-12T10:31:47.028Z,40.01
2023-08-12T10:34:35.134Z,37.49
2023-08-12T10:37:24.619Z,37.78
2023-08-12T10:40:22.961Z,37.73
2023-08-12T10:43:12.965Z,37.38
2023-08-12T10:46:01.019Z,37.80
2023-08-12T10:48:59.879Z,37.85
2023-08-12T10:51:53.282Z,38.12
2023-08-12T10:54:41.618Z,36.73
2023-08-12T10:57:40.184Z,36.52
2023-08-12T11:00:29.074Z,36.02
2023-08-12T11:03:16.919Z,35.30
2023-08-12T11:06:05.313Z,35.76
2023-08-12T11:08:53.421Z,36.26
2023-08-12T11:11:41.634Z,35.93
2023-08-12T11:14:30.333Z,33.52
2023-08-12T11:17:20.862Z,33.19
2023-08-12T11:20:10.729Z,33.38
2023-08-12T11:23:01.580Z,34.37
2023-08-12T11:25:50.794Z,34.34
2023-08-12T11:28:39.529Z,34.48
2023-08-12T11:31:27.956Z,33.07
2023-08-12T11:34:16.227Z,32.25
2023-08-12T11:37:06.673Z,33.07
2023-08-12T11:39:55.524Z,33.28
2023-08-12T11:42:45.599Z,32.22
2023-08-12T11:45:34.052Z,31.48
2023-08-12T11:48:23.885Z,31.63
2023-08-12T11:51:12.477Z,31.62
2023-08-12T11:54:01.302Z,31.12
2023-08-12T11:56:49.510Z,29.80
2023-08-12T11:59:37.656Z,30.18
2023-08-12T12:02:26.625Z,29.66
2023-08-12T12:05:14.884Z,29.41
2023-08-12T12:08:05.774Z,29.96
2023-08-12T12:10:55.401Z,30.90
2023-08-12T12:13:43.322Z,30.84
2023-08-12T12:16:42.139Z,30.66
2023-08-12T12:19:30.504Z,29.62
2023-08-12T12:22:18.737Z,29.59
2023-08-12T12:25:12.135Z,30.58
2023-08-12T12:28:00.342Z,30.19
2023-08-12T12:30:48.644Z,30.54
2023-08-12T12:33:37.229Z,31.29
2023-08-12T12:36:25.270Z,30.77
2023-08-12T12:39:13.498Z,30.44
2023-08-12T12:42:01.770Z,30.84
2023-08-12T12:44:50.213Z,31.29
2023-08-12T12:47:39.374Z,31.95
2023-08-12T12:50:27.584Z,32.58
2023-08-12T12:53:15.530Z,33.21
2023-08-12T12:56:04.410Z,33.31
2023-08-12T12:58:52.642Z,33.47
2023-08-12T13:01:41.988Z,33.45
2023-08-12T13:04:30.639Z,33.46
2023-08-12T13:07:19.023Z,33.43
2023-08-12T13:10:08.064Z,33.64
2023-08-12T13:12:56.701Z,34.18
2023-08-12T13:15:45.042Z,33.32
2023-08-12T13:18:33.388Z,32.03
2023-08-12T13:21:21.773Z,31.47
2023-08-12T13:24:09.810Z,29.86
2023-08-12T13:27:00.252Z,28.97
2023-08-12T13:29:48.793Z,29.30
2023-08-12T13:32:37.808Z,29.12
2023-08-12T13:35:26.164Z,29.07
2023-08-12T13:38:14.211Z,28.54
2023-08-12T13:41:02.557Z,27.89
2023-08-12T13:43:50.648Z,27.90
2023-08-12T13:46:38.741Z,27.50
2023-08-12T13:49:26.943Z,27.53
2023-08-12T13:52:15.420Z,26.91
2023-08-12T13:55:04.225Z,26.87
2023-08-12T13:57:53.351Z,26.39
2023-08-12T14:00:41.829Z,25.88
2023-08-12T14:03:31.275Z,25.88
2023-08-12T14:06:19.814Z,26.20
2023-08-12T14:09:08.549Z,26.42
2023-08-12T14:11:56.773Z,26.54
2023-08-12T14:14:46.168Z,26.69
2023-08-12T14:17:34.597Z,27.26
2023-08-12T14:20:22.415Z,27.59
2023-08-12T14:23:10.534Z,28.20
2023-08-12T14:25:59.097Z,28.25
2023-08-12T14:28:47.027Z,28.25
2023-08-12T14:31:35.227Z,29.03
2023-08-12T14:34:23.128Z,29.96
2023-08-12T14:37:12.047Z,30.76
2023-08-12T14:40:00.580Z,31.23
2023-08-12T14:42:48.864Z,31.82
2023-08-12T14:45:36.840Z,32.58
2023-08-12T14:48:25.085Z,33.44
2023-08-12T14:51:36.333Z,33.87
2023-08-12T14:54:52.001Z,34.27
2023-08-12T14:58:47.469Z,34.82
2023-08-12T15:02:46.651Z,35.12
2023-08-12T15:06:42.011Z,35.37
2023-08-12T15:10:27.370Z,35.20
2023-08-12T15:14:12.471Z,35.05
2023-08-12T15:18:03.520Z,35.86
2023-08-12T15:22:01.535Z,37.00
2023-08-12T15:26:00.974Z,36.97
2023-08-12T15:29:51.244Z,37.38
2023-08-12T15:33:42.741Z,38.06
2023-08-12T15:37:27.718Z,39.00
2023-08-12T15:41:12.512Z,39.40
2023-08-12T15:44:57.144Z,39.17
2023-08-12T15:48:41.588Z,39.66
2023-08-12T15:52:26.710Z,39.96
2023-08-12T15:56:12.025Z,40.64
2023-08-12T15:59:57.020Z,41.59
2023-08-12T16:03:42.042Z,42.27
2023-08-12T16:07:26.909Z,43.29
2023-08-12T16:11:11.977Z,44.55
2023-08-12T16:15:03.290Z,45.98
2023-08-12T16:18:54.650Z,47.13
2023-08-12T16:22:45.461Z,48.15
2023-08-12T16:26:42.441Z,49.36
2023-08-12T16:30:41.382Z,50.04
2023-08-12T16:34:36.846Z,49.83
2023-08-12T16:38:36.261Z,49.44
2023-08-12T16:42:31.839Z,49.79
2023-08-12T16:46:31.098Z,51.07
2023-08-12T16:50:26.505Z,54.05
2023-08-12T16:54:11.755Z,54.43
2023-08-12T16:57:56.372Z,54.53
2023-08-12T17:01:41.301Z,55.44
2023-08-12T17:05:32.226Z,56.56
2023-08-12T17:09:24.000Z,57.46
2023-08-12T17:13:20.069Z,58.96
2023-08-12T17:17:19.571Z,60.27
2023-08-12T17:21:14.864Z,61.70
2023-08-12T17:25:14.288Z,63.42
2023-08-12T17:29:09.974Z,65.73
2023-08-12T17:33:09.421Z,67.33
2023-08-12T17:37:05.114Z,69.01
2023-08-12T17:40:53.838Z,70.79
2023-08-12T17:44:38.797Z,71.71
2023-08-12T17:48:24.008Z,72.97
2023-08-12T17:52:09.362Z,75.14
2023-08-12T17:55:54.343Z,76.61
2023-08-12T17:59:39.122Z,77.57
2023-08-12T18:03:24.136Z,78.48
2023-08-12T18:07:17.508Z,78.86
2023-08-12T18:11:08.961Z,79.83
2023-08-12T18:14:59.852Z,80.28
2023-08-12T18:18:55.315Z,80.94
2023-08-12T18:22:56.752Z,81.66
2023-08-12T18:26:58.046Z,82.43
2023-08-12T18:30:57.051Z,82.65
2023-08-12T18:34:56.510Z,83.11
2023-08-12T18:38:54.898Z,84.01
2023-08-12T18:42:54.540Z,84.76
2023-08-12T18:46:45.108Z,85.48
2023-08-12T18:50:30.088Z,86.08
2023-08-12T18:54:15.072Z,86.36
2023-08-12T18:58:00.215Z,87.25
2023-08-12T19:01:45.355Z,87.89
2023-08-12T19:05:30.636Z,88.75
2023-08-12T19:09:15.745Z,89.11
2023-08-12T19:13:00.752Z,89.14
2023-08-12T19:16:45.566Z,89.99
2023-08-12T19:20:30.611Z,90.42
2023-08-12T19:24:15.556Z,90.55
2023-08-12T19:28:00.320Z,91.79
2023-08-12T19:31:58.440Z,92.16
2023-08-12T19:36:01.175Z,91.94
2023-08-12T19:40:02.679Z,91.82
2023-08-12T19:44:01.009Z,91.87
2023-08-12T19:48:00.542Z,92.24
2023-08-12T19:51:59.252Z,92.55
2023-08-12T19:55:56.084Z,93.26
2023-08-12T19:59:55.263Z,93.55
2023-08-12T20:04:00.066Z,93.45
2023-08-12T20:07:56.669Z,93.58
2023-08-12T20:11:54.552Z,93.08
2023-08-12T20:15:51.707Z,92.83
2023-08-12T20:19:49.667Z,92.66
2023-08-12T20:23:34.865Z,92.98
2023-08-12T20:27:20.109Z,93.22
2023-08-12T20:31:05.753Z,93.80
2023-08-12T20:34:56.901Z,94.37
2023-08-12T20:38:47.826Z,95.22
2023-08-12T20:42:49.266Z,96.08
2023-08-12T20:46:48.232Z,96.75
2023-08-12T20:50:39.708Z,96.90
2023-08-12T20:54:37.608Z,97.21
2023-08-12T20:58:38.414Z,97.85
2023-08-12T21:02:33.705Z,98.96
2023-08-12T21:06:42.592Z,100.00
2023-08-12T21:10:40.610Z,100.00
2023-08-12T21:14:42.149Z,100.00
2023-08-12T21:18:33.317Z,100.00
2023-08-12T21:22:29.792Z,100.00
2023-08-12T21:26:27.189Z,100.00
2023-08-12T21:30:27.323Z,100.00
2023-08-12T21:34:18.451Z,100.00
2023-08-12T21:38:14.182Z,100.00
2023-08-12T21:42:11.551Z,100.00
2023-08-12T21:46:10.781Z,100.00
2023-08-12T21:50:09.394Z,100.00
2023-08-12T21:54:08.705Z,100.00
2023-08-12T21:58:05.344Z,100.00
2023-08-12T22:02:06.735Z,100.00
2023-08-12T22:05:51.967Z,100.00
2023-08-12T22:09:43.937Z,100.00
2023-08-12T22:13:48.397Z,100.00
2023-08-12T22:17:49.329Z,100.00
2023-08-12T22:21:55.728Z,100.00
2023-08-12T22:26:03.169Z,100.00
2023-08-12T22:30:01.431Z,100.00
2023-08-12T22:34:02.798Z,100.00
2023-08-12T22:38:01.360Z,100.00
2023-08-12T22:42:02.948Z,100.00
2023-08-12T22:46:00.419Z,100.00
2023-08-12T22:50:01.946Z,100.00
2023-08-12T22:54:00.725Z,100.00
2023-08-12T22:58:01.810Z,100.00
2023-08-12T23:02:00.444Z,100.00
2023-08-12T23:06:02.036Z,100.00
2023-08-12T23:10:03.387Z,100.00
2023-08-12T23:14:01.406Z,100.00
2023-08-12T23:18:02.850Z,100.00
2023-08-12T23:22:01.235Z,100.00
2023-08-12T23:26:02.506Z,100.00
2023-08-12T23:30:00.425Z,100.00
2023-08-12T23:34:01.897Z,100.00
2023-08-12T23:37:59.443Z,100.00
2023-08-12T23:42:00.425Z,100.00
2023-08-12T23:45:58.443Z,100.00
2023-08-12T23:49:59.606Z,100.00
2023-08-12T23:53:56.431Z,100.00
2023-08-12T23:57:57.412Z,100.00
